Time;durP1;ratioP1;P1;durP2;ratioP2;P2;SDS_P1;SDS_P2;PMS_P1;PMS_P2;Temp;Humidity;BMP_temperature;BMP_pressure;BME280_temperature;BME280_humidity;BME280_pressure;Samples;Min_cycle;Max_cycle;Signal;HPM_P1;HPM_P2
2022/02/01 00:00:23;;;;;;;19.77;7.70;;;;;;;-0.43;58.38;93656.19;5117520;27;20038;-76
2022/02/01 00:02:53;;;;;;;20.35;7.53;;;;;;;-0.46;57.69;93657.19;5132915;27;20046;-76
2022/02/01 00:07:54;;;;;;;50.55;17.98;;;;;;;-0.50;57.00;93654.94;5131931;27;20392;-76
2022/02/01 00:13:11;;;;;;;27.10;10.95;;;;;;;-0.42;58.49;93667.22;5132997;27;20038;-76
2022/02/01 00:35:31;;;;;;;15.27;5.85;;;;;;;-0.39;58.58;93660.22;5131148;27;20073;-76
2022/02/01 00:37:19;;;;;;;16.58;6.30;;;;;;;-0.37;56.24;93655.81;5126561;27;20610;-75
2022/02/01 00:39:45;;;;;;;20.27;7.25;;;;;;;-0.30;56.14;93646.09;5106029;28;20039;-75
2022/02/01 00:42:12;;;;;;;16.05;5.88;;;;;;;-0.24;55.76;93635.50;5111600;28;20038;-75
2022/02/01 00:44:38;;;;;;;13.52;6.63;;;;;;;-0.29;57.39;93634.97;5076486;28;21119;-75
2022/02/01 00:47:04;;;;;;;15.73;6.10;;;;;;;-0.24;59.33;93641.44;5093430;28;20035;-75
2022/02/01 00:49:32;;;;;;;21.23;7.97;;;;;;;-0.22;56.74;93628.59;5076424;28;20020;-75
2022/02/01 00:51:58;;;;;;;14.77;6.40;;;;;;;-0.26;56.89;93627.13;5093661;28;20046;-75
2022/02/01 00:54:23;;;;;;;16.25;7.40;;;;;;;-0.32;56.49;93625.75;5110139;28;20019;-75
2022/02/01 00:56:48;;;;;;;20.45;7.85;;;;;;;-0.29;56.29;93628.13;5111390;28;20031;-75
2022/02/01 00:59:14;;;;;;;24.38;7.97;;;;;;;-0.34;60.00;93629.31;5093069;28;20481;-75
2022/02/01 01:01:39;;;;;;;18.08;6.40;;;;;;;-0.30;57.42;93626.50;5093419;28;20031;-75
2022/02/01 01:04:05;;;;;;;17.38;6.18;;;;;;;-0.29;56.96;93609.44;5110395;28;20061;-75
2022/02/01 01:06:30;;;;;;;13.75;5.70;;;;;;;-0.36;55.46;93597.94;5110312;28;20020;-75
2022/02/01 01:08:56;;;;;;;17.73;6.57;;;;;;;-0.33;55.19;93590.94;5110062;28;20042;-75
2022/02/01 01:11:21;;;;;;;18.45;6.50;;;;;;;-0.31;55.21;93598.50;5093125;28;20031;-75
2022/02/01 01:14:30;;;;;;;16.45;5.90;;;;;;;-0.29;54.04;93599.22;5092942;28;20031;-75
2022/02/01 01:43:52;;;;;;;14.68;5.55;;;;;;;-0.05;53.11;93569.66;5134560;27;20593;-75
2022/02/01 01:54:11;;;;;;;26.80;13.32;;;;;;;0.06;53.36;93565.66;5119789;27;20026;-75
2022/02/01 01:56:36;;;;;;;28.13;12.73;;;;;;;0.10;53.53;93565.34;5134276;27;20031;-75
2022/02/01 01:59:03;;;;;;;17.08;7.38;;;;;;;-0.01;52.19;93545.56;5116839;27;20019;-75
2022/02/01 02:01:29;;;;;;;13.98;6.95;;;;;;;0.13;52.69;93564.34;5100204;27;20031;-75
2022/02/01 02:03:54;;;;;;;15.73;7.13;;;;;;;0.11;52.46;93564.44;5116961;27;20032;-75
2022/02/01 02:06:20;;;;;;;16.38;7.70;;;;;;;0.07;52.68;93555.31;5116909;27;20404;-75
2022/02/01 02:08:48;;;;;;;20.20;7.68;;;;;;;0.11;53.36;93553.38;5116766;27;20510;-75
2022/02/01 02:11:20;;;;;;;24.27;8.65;;;;;;;0.07;53.88;93557.88;5135415;27;20031;-75
2022/02/01 02:16:37;;;;;;;;;;;;;;;0.13;54.24;93549.81;5134653;27;20058;-75
2022/02/01 02:19:06;;;;;;;16.23;7.45;;;;;;;0.12;53.47;93549.94;5116412;27;20400;-75
2022/02/01 02:21:32;;;;;;;19.17;8.32;;;;;;;0.07;53.44;93547.66;5100043;27;20034;-75
2022/02/01 02:23:57;;;;;;;21.77;8.88;;;;;;;0.06;53.76;93545.22;5116453;27;20063;-75
2022/02/01 02:26:23;;;;;;;23.42;9.55;;;;;;;0.04;53.78;93531.72;5133409;27;20031;-75
2022/02/01 02:28:48;;;;;;;24.15;9.18;;;;;;;0.06;54.66;93535.00;5099275;27;20027;-75
2022/02/01 02:31:14;;;;;;;23.50;9.15;;;;;;;-0.01;54.46;93539.66;5099391;27;20039;-74
2022/02/01 02:33:40;;;;;;;21.40;9.20;;;;;;;0.01;54.24;93542.13;5116464;27;20458;-74
2022/02/01 02:36:15;;;;;;;20.60;9.20;;;;;;;-0.08;52.73;93539.22;5133397;27;20035;-74
2022/02/01 02:46:55;;;;;;;20.27;8.75;;;;;;;0.02;53.10;93518.22;5091120;28;20399;-74
2022/02/01 02:49:22;;;;;;;18.77;9.15;;;;;;;0.02;54.43;93511.38;5108976;28;20039;-74
2022/02/01 02:51:47;;;;;;;21.08;8.90;;;;;;;0.12;55.70;93514.19;5095691;28;20505;-74
2022/02/01 02:54:15;;;;;;;20.05;9.27;;;;;;;0.04;55.07;93506.19;5095366;28;20023;-74
2022/02/01 02:56:49;;;;;;;28.30;12.02;;;;;;;0.02;54.79;93515.66;5095487;28;20100;-74
2022/02/01 02:59:15;;;;;;;31.67;14.43;;;;;;;-0.24;54.45;93493.38;5112368;28;20460;-74
2022/02/01 03:01:42;;;;;;;28.52;14.40;;;;;;;-0.08;55.90;93511.13;5095683;28;20042;-74
2022/02/01 03:04:07;;;;;;;27.42;12.80;;;;;;;-0.07;56.36;93528.09;5112292;28;20110;-74
2022/02/01 03:06:32;;;;;;;28.33;11.77;;;;;;;-0.13;57.43;93520.81;5095411;28;20035;-74
2022/02/01 03:08:58;;;;;;;28.02;11.57;;;;;;;-0.13;57.34;93527.66;5095221;28;20421;-74
2022/02/01 03:11:23;;;;;;;32.58;16.20;;;;;;;-0.24;55.75;93511.25;5113811;28;20046;-74
2022/02/01 03:13:56;;;;;;;34.95;15.55;;;;;;;-0.27;55.80;93524.22;5095111;28;20050;-75
2022/02/01 03:21:32;;;;;;;22.92;11.70;;;;;;;-0.33;55.65;93518.66;5112378;28;20042;-74
2022/02/01 03:23:57;;;;;;;24.92;11.65;;;;;;;-0.26;55.85;93530.13;5094811;28;20027;-74
2022/02/01 03:26:22;;;;;;;27.13;12.65;;;;;;;-0.26;56.36;93519.91;5112008;28;20039;-74
2022/02/01 03:28:48;;;;;;;28.10;11.35;;;;;;;-0.35;58.32;93494.97;5094862;28;20028;-74
2022/02/01 03:31:13;;;;;;;26.08;11.65;;;;;;;-0.20;56.77;93514.44;5113303;28;20023;-74
2022/02/01 03:33:39;;;;;;;26.25;12.05;;;;;;;-0.22;57.46;93506.06;5113200;28;20395;-74
2022/02/01 03:36:04;;;;;;;21.73;9.88;;;;;;;-0.23;58.41;93504.41;5111443;28;20047;-74
2022/02/01 03:38:30;;;;;;;25.73;10.63;;;;;;;-0.28;58.49;93498.75;5094679;28;20057;-74
2022/02/01 03:40:55;;;;;;;21.38;9.05;;;;;;;-0.28;59.51;93506.41;5111498;28;20065;-74
2022/02/01 03:43:20;;;;;;;24.42;9.48;;;;;;;-0.27;57.95;93498.69;5112786;28;20024;-74
2022/02/01 03:45:46;;;;;;;16.65;8.60;;;;;;;-0.29;59.09;93494.59;5111520;28;20027;-74
2022/02/01 03:48:11;;;;;;;16.50;8.48;;;;;;;-0.29;59.59;93489.47;5128579;27;20028;-74
2022/02/01 03:50:37;;;;;;;21.67;8.50;;;;;;;-0.38;59.42;93484.94;5128295;27;20040;-74
2022/02/01 03:53:02;;;;;;;17.92;7.57;;;;;;;-0.30;59.72;93493.78;5110978;28;20032;-74
2022/02/01 03:55:27;;;;;;;16.40;8.60;;;;;;;-0.29;58.78;93492.03;5111104;28;20027;-74
2022/02/01 03:57:53;;;;;;;19.58;9.35;;;;;;;-0.26;56.98;93484.19;5112444;28;20069;-74
2022/02/01 04:00:18;;;;;;;23.33;9.27;;;;;;;-0.19;56.87;93485.47;5112522;28;20026;-73
2022/02/01 04:02:44;;;;;;;20.50;9.20;;;;;;;-0.17;54.85;93473.41;5112373;28;20042;-74
2022/02/01 04:05:09;;;;;;;18.67;8.63;;;;;;;-0.10;54.75;93461.91;5110853;28;20031;-74
2022/02/01 04:07:35;;;;;;;21.77;9.98;;;;;;;-0.15;54.72;93451.16;5111109;28;20054;-74
2022/02/01 04:10:00;;;;;;;23.20;9.15;;;;;;;-0.22;55.36;93457.56;5110853;28;20065;-74
2022/02/01 04:12:27;;;;;;;20.42;9.77;;;;;;;-0.14;57.06;93470.69;5110882;28;20066;-74
2022/02/01 04:14:54;;;;;;;21.35;9.02;;;;;;;-0.18;56.57;93460.75;5110562;28;20534;-74
2022/02/01 04:17:20;;;;;;;16.92;9.18;;;;;;;-0.12;57.76;93461.16;5112007;28;20027;-74
2022/02/01 04:19:47;;;;;;;19.13;9.80;;;;;;;-0.14;56.83;93462.19;5110730;28;20393;-74
2022/02/01 04:22:14;;;;;;;18.75;9.50;;;;;;;-0.09;56.49;93455.88;5093942;28;20035;-73
2022/02/01 04:24:41;;;;;;;29.13;11.32;;;;;;;-0.09;56.45;93463.53;5110385;28;20036;-74
2022/02/01 04:27:07;;;;;;;28.08;11.07;;;;;;;-0.04;57.09;93466.63;5110642;28;20046;-74
2022/02/01 04:29:33;;;;;;;20.77;9.50;;;;;;;-0.01;56.70;93466.41;5110475;28;20027;-73
2022/02/01 04:31:58;;;;;;;29.10;16.73;;;;;;;-0.11;56.83;93447.50;5110530;28;20089;-74
2022/02/01 04:34:24;;;;;;;32.33;14.68;;;;;;;-0.13;55.89;93459.53;5110450;28;20477;-73
2022/02/01 04:36:49;;;;;;;37.33;17.42;;;;;;;-0.17;55.21;93460.63;5111694;28;20084;-74
2022/02/01 04:39:15;;;;;;;77.45;31.35;;;;;;;-0.17;56.06;93468.28;5130901;27;20011;-73
2022/02/01 04:41:40;;;;;;;83.93;33.03;;;;;;;-0.14;56.89;93465.56;5131157;27;20034;-74
2022/02/01 04:44:06;;;;;;;73.03;33.38;;;;;;;-0.07;57.01;93463.44;5132070;27;20065;-74
2022/02/01 04:46:31;;;;;;;43.38;18.92;;;;;;;-0.07;56.63;93461.69;5131110;27;20062;-73
2022/02/01 04:49:04;;;;;;;30.00;13.35;;;;;;;-0.07;57.39;93463.44;5130832;27;20389;-74
2022/02/01 04:51:30;;;;;;;44.30;21.33;;;;;;;-0.06;58.09;93473.53;5098700;27;20061;-74
2022/02/01 04:53:57;;;;;;;55.00;25.80;;;;;;;-0.02;58.21;93476.75;5130675;27;20020;-73
2022/02/01 04:56:22;;;;;;;68.60;28.63;;;;;;;-0.14;57.02;93467.28;5113551;27;20409;-73
2022/02/01 04:58:47;;;;;;;73.18;29.90;;;;;;;-0.19;58.42;93485.47;5131978;27;20038;-73
2022/02/01 05:01:13;;;;;;;70.53;27.17;;;;;;;-0.23;58.65;93491.66;5096720;27;20031;-74
2022/02/01 05:03:39;;;;;;;75.85;31.75;;;;;;;-0.25;58.01;93494.31;5129943;27;20424;-74
2022/02/01 05:06:06;;;;;;;82.53;31.30;;;;;;;-0.24;57.71;93500.22;5096866;27;20103;-73
2022/02/01 05:08:32;;;;;;;82.38;31.70;;;;;;;-0.23;57.93;93509.50;5130634;27;20035;-73
2022/02/01 05:10:57;;;;;;;59.53;23.90;;;;;;;-0.26;57.48;93507.97;5130529;27;20054;-73
2022/02/01 05:16:10;;;;;;;41.45;17.88;;;;;;;-0.32;58.09;93515.19;5114870;28;20473;-73
2022/02/01 05:18:47;;;;;;;24.08;9.55;;;;;;;-0.32;56.96;93503.25;5130692;28;20062;-73
2022/02/01 05:21:21;;;;;;;18.80;8.65;;;;;;;-0.33;57.62;93505.91;5130702;28;20272;-73
2022/02/01 05:23:47;;;;;;;22.10;8.52;;;;;;;-0.26;55.73;93515.63;5127905;28;20415;-73
2022/02/01 05:26:13;;;;;;;16.23;7.80;;;;;;;-0.18;54.65;93519.47;5101720;28;20544;-73
2022/02/01 05:28:38;;;;;;;17.80;8.05;;;;;;;-0.10;54.40;93524.91;5131636;27;20441;-73
2022/02/01 05:31:04;;;;;;;13.40;7.47;;;;;;;-0.09;53.82;93523.97;5113139;28;20066;-73
2022/02/01 05:33:30;;;;;;;17.50;7.32;;;;;;;-0.12;53.80;93514.78;5096218;28;20492;-74
2022/02/01 05:35:56;;;;;;;13.18;7.03;;;;;;;0.02;53.57;93528.44;5110437;28;20035;-73
2022/02/01 05:38:21;;;;;;;13.88;7.13;;;;;;;-0.05;52.61;93503.28;5109873;28;20027;-73
2022/02/01 05:40:47;;;;;;;17.52;6.72;;;;;;;0.17;52.79;93522.38;5109946;28;20038;-74
2022/02/01 05:43:18;;;;;;;9.38;5.32;;;;;;;0.18;51.53;93524.00;5111044;28;20054;-73
2022/02/01 05:45:43;;;;;;;13.18;6.32;;;;;;;0.21;52.39;93514.41;5109939;28;20114;-73
2022/02/01 05:48:12;;;;;;;15.20;6.75;;;;;;;0.23;53.30;93519.44;5113966;28;20038;-73
2022/02/01 05:50:38;;;;;;;15.63;6.35;;;;;;;0.27;54.52;93523.41;5112988;28;20051;-73
2022/02/01 05:53:05;;;;;;;15.30;6.95;;;;;;;0.16;52.90;93511.31;5103731;28;20040;-73
2022/02/01 05:55:32;;;;;;;11.40;5.53;;;;;;;0.28;51.12;93531.91;5108780;28;20040;-73
2022/02/01 05:57:57;;;;;;;10.98;5.38;;;;;;;0.37;51.67;93521.13;5091475;28;20039;-74
2022/02/01 06:00:23;;;;;;;13.27;5.38;;;;;;;0.33;52.81;93523.03;5091320;28;20084;-73
2022/02/01 06:02:50;;;;;;;11.02;4.88;;;;;;;0.38;51.03;93533.78;5108615;28;20030;-73
2022/02/01 06:05:15;;;;;;;12.10;4.78;;;;;;;0.31;52.07;93530.00;5109022;28;20035;-73
2022/02/01 06:07:41;;;;;;;18.92;7.18;;;;;;;0.32;54.58;93538.47;5110087;28;20496;-73
2022/02/01 06:10:06;;;;;;;41.97;13.98;;;;;;;0.28;57.11;93539.56;5106238;28;20683;-73
2022/02/01 06:12:42;;;;;;;32.53;13.63;;;;;;;0.26;57.06;93552.44;5091667;28;20031;-73
2022/02/01 06:15:08;;;;;;;20.48;8.48;;;;;;;0.23;58.28;93557.75;5109225;28;20032;-73
2022/02/01 06:17:33;;;;;;;27.45;11.07;;;;;;;0.25;57.96;93576.34;5113648;28;20458;-73
2022/02/01 06:19:59;;;;;;;27.90;11.20;;;;;;;0.16;57.58;93571.81;5112468;28;20113;-73
2022/02/01 06:22:24;;;;;;;15.50;5.65;;;;;;;0.15;59.68;93571.00;5129793;27;20424;-75
2022/02/01 06:24:50;;;;;;;31.10;11.43;;;;;;;0.16;57.63;93571.81;5132838;27;20114;-73
2022/02/01 06:27:15;;;;;;;30.08;10.75;;;;;;;0.19;57.68;93586.94;5113465;27;20020;-73
2022/02/01 06:29:40;;;;;;;16.15;7.40;;;;;;;0.19;57.25;93608.19;5130990;27;20039;-74
2022/02/01 06:32:06;;;;;;;20.23;8.52;;;;;;;0.15;57.03;93603.38;5133038;27;20028;-73
2022/02/01 06:34:31;;;;;;;15.10;6.78;;;;;;;0.20;55.84;93619.25;5113763;27;20110;-73
2022/02/01 06:36:57;;;;;;;11.35;5.13;;;;;;;0.18;57.82;93619.31;5132685;27;20053;-73
2022/02/01 06:39:23;;;;;;;13.43;5.50;;;;;;;0.10;60.14;93607.94;5132443;27;20092;-73
2022/02/01 06:41:48;;;;;;;66.60;21.67;;;;;;;0.25;59.39;93622.31;5129629;27;20668;-74
2022/02/01 06:44:14;;;;;;;99.15;33.63;;;;;;;0.29;58.14;93628.06;5132929;27;20027;-73
2022/02/01 06:46:39;;;;;;;83.30;28.15;;;;;;;0.37;58.24;93631.78;5134398;27;20027;-73
2022/02/01 06:49:10;;;;;;;100.82;33.13;;;;;;;0.36;58.51;93632.72;5130599;27;20035;-73
2022/02/01 06:51:36;;;;;;;;;;;;;;;0.36;57.71;93637.81;5125829;27;20031;-73
2022/02/01 06:54:03;;;;;;;89.28;36.10;;;;;;;0.24;58.00;93635.19;5111385;28;19923;-73
2022/02/01 06:56:28;;;;;;;97.88;35.38;;;;;;;0.24;59.16;93656.44;5113261;27;20100;-73
2022/02/01 06:58:57;;;;;;;105.80;36.10;;;;;;;0.26;59.25;93649.53;5130340;27;20023;-74
2022/02/01 07:01:23;;;;;;;91.80;36.33;;;;;;;0.30;59.77;93650.94;5098161;27;20027;-73
2022/02/01 07:03:49;;;;;;;109.30;39.53;;;;;;;0.39;59.67;93659.78;5131923;27;20058;-73
2022/02/01 07:06:14;;;;;;;90.53;35.88;;;;;;;0.38;59.91;93656.41;5126921;27;20038;-73
2022/02/01 07:08:42;;;;;;;68.82;30.00;;;;;;;0.36;59.75;93657.41;5091617;27;20489;-74
2022/02/01 07:11:07;;;;;;;35.75;14.77;;;;;;;0.44;60.18;93658.59;5130697;27;20035;-74
2022/02/01 07:13:33;;;;;;;19.35;8.88;;;;;;;0.47;55.63;93659.31;5102845;28;20030;-73
2022/02/01 07:15:58;;;;;;;18.08;7.53;;;;;;;0.57;55.87;93662.97;5126428;27;20032;-73
2022/02/01 07:18:24;;;;;;;19.92;8.95;;;;;;;0.64;54.80;93659.09;5094128;28;20050;-73
2022/02/01 07:20:49;;;;;;;18.90;7.05;;;;;;;0.72;52.39;93667.09;5111538;28;20057;-74
2022/02/01 07:23:21;;;;;;;13.13;5.63;;;;;;;0.76;52.59;93667.75;5096141;28;20031;-73
2022/02/01 07:25:47;;;;;;;61.50;28.10;;;;;;;0.71;56.08;93668.03;5111595;27;20473;-74
2022/02/01 07:28:13;;;;;;;64.95;28.38;;;;;;;0.69;55.73;93669.84;5126215;27;20032;-74
2022/02/01 07:30:39;;;;;;;55.35;26.13;;;;;;;0.64;55.47;93674.41;5111823;27;20080;-73
2022/02/01 07:33:04;;;;;;;63.38;29.45;;;;;;;0.66;56.24;93682.81;5114279;27;20031;-73
2022/02/01 07:35:32;;;;;;;65.30;32.88;;;;;;;0.68;56.68;93686.13;5094189;27;20470;-74
2022/02/01 07:37:59;;;;;;;63.60;30.92;;;;;;;0.74;57.23;93685.72;5110372;28;20226;-74
2022/02/01 07:40:24;;;;;;;66.38;31.58;;;;;;;0.82;56.81;93682.69;5110948;28;20391;-74
2022/02/01 07:42:50;;;;;;;63.25;29.40;;;;;;;0.82;55.69;93687.81;5111904;28;20493;-74
2022/02/01 07:45:17;;;;;;;64.88;27.27;;;;;;;0.86;54.75;93694.34;5120122;27;20549;-73
2022/02/01 07:47:43;;;;;;;58.35;25.77;;;;;;;0.88;54.75;93685.69;5128790;27;20103;-74
2022/02/01 07:50:08;;;;;;;59.42;27.63;;;;;;;0.81;54.83;93669.09;5130344;27;20460;-74
2022/02/01 07:52:34;;;;;;;58.90;25.23;;;;;;;0.90;54.47;93680.47;5130471;27;20204;-74
2022/02/01 07:54:59;;;;;;;50.08;24.40;;;;;;;0.97;55.29;93691.94;5134375;27;20022;-73
2022/02/01 07:57:25;;;;;;;48.00;23.83;;;;;;;1.02;54.87;93684.00;5136563;27;20219;-74
2022/02/01 07:59:51;;;;;;;59.97;25.65;;;;;;;1.09;54.24;93690.38;5114491;27;20027;-73
2022/02/01 08:02:20;;;;;;;54.22;23.85;;;;;;;1.03;53.71;93665.16;5140018;27;20046;-74
2022/02/01 08:04:46;;;;;;;53.95;24.80;;;;;;;1.19;54.34;93680.34;5123564;27;20398;-74
2022/02/01 08:07:12;;;;;;;47.78;20.63;;;;;;;1.21;53.73;93679.34;5120743;27;20034;-73
2022/02/01 08:09:42;;;;;;;32.15;15.38;;;;;;;1.26;52.79;93689.28;5111953;27;20095;-74
2022/02/01 08:12:21;;;;;;;32.80;14.35;;;;;;;1.31;52.39;93684.69;5094383;28;20051;-74
2022/02/01 08:17:23;;;;;;;19.30;8.15;;;;;;;1.40;50.02;93684.09;5130952;27;20064;-74
2022/02/01 08:22:32;;;;;;;19.15;7.88;;;;;;;1.42;48.16;93679.69;5129750;27;20035;-73
2022/02/01 08:24:58;;;;;;;24.98;13.52;;;;;;;1.46;49.09;93682.88;5114032;27;20043;-74
2022/02/01 08:27:23;;;;;;;127.75;52.17;;;;;;;1.54;51.92;93678.06;5111441;27;20412;-74
2022/02/01 08:29:48;;;;;;;97.60;40.80;;;;;;;1.53;51.30;93684.94;5093579;27;20104;-74
2022/02/01 08:32:14;;;;;;;33.63;16.10;;;;;;;1.57;49.49;93680.44;5128404;27;20027;-73
2022/02/01 08:34:39;;;;;;;54.83;26.17;;;;;;;1.59;49.61;93677.75;5128869;27;20031;-74
2022/02/01 08:37:05;;;;;;;107.30;45.47;;;;;;;1.63;52.03;93690.25;5118332;27;20128;-73
2022/02/01 08:39:30;;;;;;;120.03;47.63;;;;;;;1.54;53.19;93688.31;5093479;28;20030;-73
2022/02/01 08:41:56;;;;;;;126.30;49.13;;;;;;;1.37;53.92;93663.81;5110213;28;20059;-74
2022/02/01 08:44:27;;;;;;;122.90;49.05;;;;;;;1.41;54.88;93672.94;5113861;27;20435;-72
2022/02/01 08:46:53;;;;;;;;;;;;;;;1.49;54.90;93683.47;5092778;28;20270;-75
2022/02/01 08:49:18;;;;;;;95.43;40.25;;;;;;;1.44;54.13;93677.84;5113039;27;19919;-74
2022/02/01 08:51:45;;;;;;;89.32;38.15;;;;;;;1.46;54.83;93672.63;5128650;27;20113;-75
2022/02/01 08:54:16;;;;;;;94.30;39.72;;;;;;;1.52;54.43;93683.28;5116714;27;20038;-73
2022/02/01 08:59:25;;;;;;;73.40;35.08;;;;;;;1.37;55.03;93680.91;5108758;27;20046;-74
2022/02/01 09:01:51;;;;;;;85.93;36.67;;;;;;;1.41;55.56;93687.47;5126954;27;20028;-74
2022/02/01 09:04:16;;;;;;;84.10;35.15;;;;;;;1.28;55.67;93677.19;5095668;28;20032;-73
2022/02/01 09:06:41;;;;;;;83.93;35.70;;;;;;;1.36;55.53;93686.94;5112354;28;20140;-74
2022/02/01 09:09:07;;;;;;;88.88;35.85;;;;;;;1.36;55.15;93682.63;5119172;27;20032;-73
2022/02/01 09:11:32;;;;;;;99.13;37.47;;;;;;;1.42;55.43;93686.53;5112626;28;20398;-73
2022/02/01 09:13:59;;;;;;;83.03;35.45;;;;;;;1.46;54.41;93688.00;5120281;27;20039;-73
2022/02/01 09:16:24;;;;;;;78.72;36.20;;;;;;;1.52;54.44;93697.81;5096235;28;20149;-73
2022/02/01 09:18:50;;;;;;;59.20;27.83;;;;;;;1.46;53.74;93699.03;5118365;27;20031;-74
2022/02/01 09:21:16;;;;;;;60.40;27.35;;;;;;;1.49;53.78;93698.03;5132391;27;20079;-73
2022/02/01 09:23:41;;;;;;;59.60;27.15;;;;;;;1.53;53.12;93700.28;5112405;28;20035;-73
2022/02/01 09:26:06;;;;;;;58.72;27.25;;;;;;;1.56;54.13;93701.81;5130918;27;20048;-74
2022/02/01 09:28:33;;;;;;;57.25;26.48;;;;;;;1.56;52.50;93697.53;5129215;27;20027;-74
2022/02/01 09:30:58;;;;;;;58.65;27.95;;;;;;;1.63;54.23;93694.56;5109222;28;20027;-74
2022/02/01 09:33:24;;;;;;;61.08;28.85;;;;;;;1.72;53.73;93699.88;5110735;28;20420;-74
2022/02/01 09:35:49;;;;;;;71.85;31.80;;;;;;;1.81;53.29;93695.91;5109690;28;20100;-74
2022/02/01 09:38:17;;;;;;;86.90;37.95;;;;;;;1.85;51.87;93691.41;5101054;28;20066;-73
2022/02/01 09:40:43;;;;;;;69.85;33.95;;;;;;;1.91;52.20;93691.81;5113803;27;20031;-74
2022/02/01 09:43:08;;;;;;;71.93;32.42;;;;;;;1.96;51.81;93683.81;5110172;28;20038;-74
2022/02/01 09:45:34;;;;;;;80.85;35.45;;;;;;;1.97;51.93;93677.78;5120050;28;20485;-74
2022/02/01 09:48:00;;;;;;;86.80;38.55;;;;;;;1.99;51.88;93684.44;5123732;28;20039;-74
2022/02/01 09:50:27;;;;;;;87.57;36.00;;;;;;;2.00;52.06;93675.00;5128634;27;20484;-73
2022/02/01 09:52:52;;;;;;;78.68;35.97;;;;;;;2.08;52.50;93680.44;5133266;27;20031;-75
2022/02/01 09:55:19;;;;;;;77.93;34.22;;;;;;;2.15;51.64;93680.84;5134630;27;20396;-73
2022/02/01 09:57:45;;;;;;;81.57;36.70;;;;;;;2.19;51.62;93683.06;5133198;27;20114;-74
2022/02/01 10:00:15;;;;;;;72.72;34.15;;;;;;;2.19;51.76;93682.25;5115448;27;20031;-73
2022/02/01 10:02:45;;;;;;;91.77;43.90;;;;;;;2.22;51.96;93680.31;5123569;27;20109;-73
2022/02/01 10:05:11;;;;;;;87.07;43.00;;;;;;;2.27;51.83;93668.94;5149336;27;20124;-74
2022/02/01 10:07:55;;;;;;;92.43;43.85;;;;;;;2.39;52.41;93680.91;5134897;27;20035;-74
2022/02/01 10:10:23;;;;;;;82.75;38.00;;;;;;;2.30;51.96;93690.03;5132588;27;20027;-74
2022/02/01 10:13:00;;;;;;;81.72;42.20;;;;;;;2.14;51.84;93672.31;5132848;27;20412;-74
2022/02/01 10:15:26;;;;;;;79.78;37.38;;;;;;;2.22;51.81;93670.06;5134417;27;20023;-74
2022/02/01 10:17:58;;;;;;;80.88;38.13;;;;;;;2.23;50.95;93669.16;5115711;27;20118;-74
2022/02/01 10:20:41;;;;;;;90.63;40.20;;;;;;;2.22;51.63;93661.56;5131515;27;20102;-74
2022/02/01 10:23:30;;;;;;;94.03;40.33;;;;;;;2.31;51.24;93668.59;5120254;27;20031;-74
2022/02/01 10:26:01;;;;;;;109.38;47.47;;;;;;;2.25;51.78;93676.72;5118006;27;20130;-73
2022/02/01 10:32:05;;;;;;;126.38;51.42;;;;;;;2.23;51.60;93658.91;5108340;27;20043;-75
2022/02/01 10:36:57;;;;;;;;;;;;;;;2.44;51.45;93686.53;5132909;27;20039;-72
2022/02/01 10:39:25;;;;;;;115.13;46.35;;;;;;;2.44;51.43;93684.78;5136376;27;20388;-72
2022/02/01 10:41:54;;;;;;;33.80;14.60;;;;;;;2.52;48.04;93686.81;5132021;27;20030;-74
2022/02/01 10:44:22;;;;;;;21.27;9.63;;;;;;;2.50;47.12;93685.28;5132899;27;20030;-75
2022/02/01 10:46:54;;;;;;;7.03;3.05;;;;;;;2.56;46.60;93687.41;5128405;27;20038;-74
2022/02/01 10:49:30;;;;;;;9.63;3.22;;;;;;;2.64;46.99;93687.72;5115070;27;20090;-73
2022/02/01 10:52:14;;;;;;;8.55;3.00;;;;;;;2.62;47.70;93687.03;5131466;27;20136;-73
2022/02/01 10:54:41;;;;;;;12.13;5.25;;;;;;;2.62;47.25;93677.56;5113762;27;20033;-74
2022/02/01 10:57:08;;;;;;;9.25;4.00;;;;;;;2.56;47.50;93675.41;5131984;27;20061;-73
2022/02/01 10:59:34;;;;;;;7.70;3.00;;;;;;;2.63;46.19;93676.63;5114263;27;20552;-73
2022/02/01 11:02:00;;;;;;;37.38;14.50;;;;;;;2.60;47.50;93684.56;5130160;27;20039;-73
2022/02/01 11:04:27;;;;;;;33.67;14.23;;;;;;;2.64;48.40;93680.81;5121856;27;20497;-73
2022/02/01 11:06:53;;;;;;;57.80;25.67;;;;;;;2.62;49.01;93684.47;5108622;28;20110;-74
2022/02/01 11:09:20;;;;;;;53.95;26.65;;;;;;;2.66;48.57;93694.38;5112350;27;20027;-74
2022/02/01 11:12:06;;;;;;;36.47;16.13;;;;;;;2.63;47.33;93696.34;5094421;28;20425;-74
2022/02/01 11:14:56;;;;;;;52.00;22.05;;;;;;;2.65;48.76;93702.19;5094160;27;20042;-73
2022/02/01 11:17:22;;;;;;;49.97;22.35;;;;;;;2.61;49.53;93696.44;5127733;27;20477;-74
2022/02/01 11:19:52;;;;;;;51.28;25.27;;;;;;;2.72;50.03;93700.81;5118595;27;20038;-74
2022/02/01 11:22:24;;;;;;;23.25;8.20;;;;;;;2.74;47.34;93698.97;5124421;27;20035;-73
2022/02/01 11:24:51;;;;;;;12.55;4.63;;;;;;;2.57;46.75;93697.59;5118458;27;20038;-73
2022/02/01 11:27:19;;;;;;;16.92;4.53;;;;;;;2.46;47.88;93697.50;5124542;27;20032;-73
2022/02/01 11:32:36;;;;;;;18.20;5.25;;;;;;;2.07;50.24;93686.47;5117252;27;20129;-73
2022/02/01 11:35:06;;;;;;;17.35;5.25;;;;;;;1.98;51.87;93700.75;5095094;27;20042;-73
2022/02/01 11:37:31;;;;;;;13.25;4.50;;;;;;;1.93;52.51;93697.66;5114507;27;20080;-73
2022/02/01 11:39:57;;;;;;;12.85;4.80;;;;;;;1.92;52.96;93713.13;5131243;27;20023;-73
2022/02/01 11:42:32;;;;;;;7.63;4.38;;;;;;;1.99;52.84;93714.34;5097722;27;20126;-73
2022/02/01 11:45:03;;;;;;;10.07;4.85;;;;;;;2.08;54.47;93716.28;5130802;27;20080;-73
2022/02/01 11:47:38;;;;;;;9.37;4.90;;;;;;;2.11;54.65;93716.09;5131472;27;20031;-73
2022/02/01 11:50:14;;;;;;;11.80;4.63;;;;;;;2.10;54.73;93708.53;5114660;27;20059;-73
2022/02/01 11:52:44;;;;;;;11.60;4.10;;;;;;;2.04;54.96;93691.81;5111423;27;20116;-73
2022/02/01 11:55:10;;;;;;;9.07;4.28;;;;;;;2.13;54.65;93716.81;5131375;27;20106;-73
2022/02/01 11:57:43;;;;;;;12.88;4.65;;;;;;;2.04;55.95;93701.25;5097712;27;20485;-73
2022/02/01 12:00:18;;;;;;;15.98;4.85;;;;;;;2.12;57.10;93716.94;5131733;27;20066;-73
2022/02/01 12:02:49;;;;;;;14.82;5.22;;;;;;;2.07;58.78;93718.97;5132957;27;20047;-73
2022/02/01 12:05:28;;;;;;;13.38;5.38;;;;;;;2.11;58.81;93731.47;5131751;27;20041;-73
2022/02/01 12:08:02;;;;;;;17.27;6.03;;;;;;;1.87;60.18;93740.81;5115556;27;20031;-73
2022/02/01 12:10:27;;;;;;;14.93;6.13;;;;;;;1.81;60.64;93734.31;5115519;27;20078;-73
2022/02/01 12:12:56;;;;;;;15.02;6.38;;;;;;;1.87;60.72;93733.13;5131333;27;20470;-73
2022/02/01 12:15:25;;;;;;;13.30;6.15;;;;;;;1.71;61.99;93736.66;5097412;27;20114;-73
2022/02/01 12:17:51;;;;;;;12.95;5.80;;;;;;;1.62;62.91;93732.16;5131427;27;20031;-73
2022/02/01 12:20:17;;;;;;;14.18;6.20;;;;;;;1.62;63.46;93733.91;5131424;27;20031;-73
2022/02/01 12:23:16;;;;;;;17.63;6.60;;;;;;;1.66;63.15;93737.88;5131370;27;20470;-73
2022/02/01 12:25:41;;;;;;;14.43;6.53;;;;;;;1.56;63.26;93738.50;5122340;27;20547;-73
2022/02/01 12:28:25;;;;;;;16.60;6.35;;;;;;;1.54;63.81;93739.50;5120343;27;20036;-73
2022/02/01 12:30:51;;;;;;;19.70;5.97;;;;;;;1.49;63.84;93733.88;5086809;27;20028;-74
2022/02/01 12:33:19;;;;;;;13.32;5.88;;;;;;;1.54;63.48;93744.63;5090556;27;20062;-74
2022/02/01 12:35:44;;;;;;;20.42;6.47;;;;;;;1.50;63.24;93748.28;5128529;27;20039;-73
2022/02/01 12:38:16;;;;;;;12.98;6.30;;;;;;;1.51;63.73;93748.22;5105033;28;20077;-73
2022/02/01 12:40:41;;;;;;;;;;;;;;;1.53;63.61;93751.50;5110187;28;20039;-73
2022/02/01 12:43:15;;;;;;;15.77;5.82;;;;;;;1.38;63.88;93742.22;5111104;28;19920;-72
2022/02/01 12:45:51;;;;;;;16.95;5.72;;;;;;;1.51;63.39;93762.75;5108823;28;20088;-72
2022/02/01 12:48:18;;;;;;;14.50;5.47;;;;;;;1.54;63.56;93760.81;5108833;28;20557;-72
2022/02/01 12:50:55;;;;;;;16.05;6.72;;;;;;;1.56;63.66;93760.69;5109374;28;20459;-72
2022/02/01 12:53:20;;;;;;;14.13;6.32;;;;;;;1.62;63.95;93765.44;5091923;28;20027;-73
2022/02/01 12:55:45;;;;;;;13.52;6.50;;;;;;;1.59;64.01;93775.88;5109358;28;20550;-72
2022/02/01 12:58:15;;;;;;;23.55;7.85;;;;;;;1.55;64.14;93769.28;5093854;28;20038;-72
2022/02/01 13:00:40;;;;;;;16.15;7.38;;;;;;;1.61;64.33;93773.19;5108676;28;20455;-73
2022/02/01 13:03:06;;;;;;;29.17;15.68;;;;;;;1.54;64.54;93777.91;5109645;28;20024;-72
2022/02/01 13:05:32;;;;;;;34.72;16.10;;;;;;;1.63;64.42;93781.63;5107862;28;20110;-73